createdAt,value
2019-04-06T00:00:34.712Z,10.90
2019-04-06T00:04:39.643Z,11.00
2019-04-06T00:08:45.624Z,11.00
2019-04-06T00:12:50.563Z,10.90
2019-04-06T00:16:55.729Z,10.70
2019-04-06T00:21:00.491Z,10.80
2019-04-06T00:25:06.630Z,10.70
2019-04-06T00:29:11.448Z,10.80
2019-04-06T00:33:18.073Z,10.80
2019-04-06T00:37:22.907Z,10.80
2019-04-06T00:41:29.304Z,10.80
2019-04-06T00:45:34.149Z,10.70
2019-04-06T00:49:39.041Z,10.70
2019-04-06T00:53:43.975Z,10.70
2019-04-06T00:57:48.699Z,10.70
2019-04-06T01:01:53.564Z,10.50
2019-04-06T01:05:58.347Z,10.40
2019-04-06T01:10:03.221Z,10.10
2019-04-06T01:14:08.767Z,10.30
2019-04-06T01:18:13.655Z,10.30
2019-04-06T01:22:18.529Z,10.50
2019-04-06T01:26:23.403Z,10.50
2019-04-06T01:30:28.492Z,10.40
2019-04-06T01:34:33.677Z,10.20
2019-04-06T01:38:40.762Z,10.10
2019-04-06T01:42:45.924Z,10.00
2019-04-06T01:46:52.404Z,10.00
2019-04-06T01:50:57.171Z,9.90
2019-04-06T01:55:01.941Z,10.00
2019-04-06T01:59:06.840Z,10.00
2019-04-06T02:03:11.771Z,10.20
2019-04-06T02:07:16.886Z,10.10
2019-04-06T02:11:22.988Z,9.90
2019-04-06T02:15:27.706Z,9.90
2019-04-06T02:19:32.444Z,10.00
2019-04-06T02:23:37.336Z,10.00
2019-04-06T02:27:42.068Z,10.10
2019-04-06T02:32:02.126Z,10.10
2019-04-06T02:36:33.278Z,10.20
2019-04-06T02:40:49.565Z,10.10
2019-04-06T02:44:55.675Z,10.10
2019-04-06T02:49:00.637Z,9.90
2019-04-06T02:53:05.545Z,10.00
2019-04-06T02:57:10.343Z,10.00
2019-04-06T03:01:15.499Z,10.00
2019-04-06T03:05:20.409Z,10.00
2019-04-06T03:09:25.619Z,10.10
2019-04-06T03:13:30.775Z,10.00
2019-04-06T03:17:35.580Z,9.90
2019-04-06T03:21:40.660Z,9.90
2019-04-06T03:25:45.521Z,9.80
2019-04-06T03:29:57.586Z,9.80
2019-04-06T03:33:57.021Z,9.80
2019-04-06T03:38:03.159Z,9.80
2019-04-06T03:42:10.800Z,9.70
2019-04-06T03:46:15.157Z,9.80
2019-04-06T03:50:20.187Z,9.80
2019-04-06T03:54:25.378Z,9.80
2019-04-06T03:58:30.203Z,9.90
2019-04-06T04:02:35.133Z,9.90
2019-04-06T04:06:39.990Z,9.90
2019-04-06T04:10:47.340Z,10.00
2019-04-06T04:14:51.232Z,10.00
2019-04-06T04:18:56.045Z,10.00
2019-04-06T04:23:00.920Z,10.00
2019-04-06T04:27:06.893Z,9.90
2019-04-06T04:31:11.705Z,10.00
2019-04-06T04:35:18.553Z,10.10
2019-04-06T04:39:22.968Z,10.10
2019-04-06T04:43:27.945Z,10.10
2019-04-06T04:47:32.690Z,9.90
2019-04-06T04:51:37.431Z,10.00
2019-04-06T04:55:42.297Z,10.10
2019-04-06T04:59:47.107Z,10.20
2019-04-06T05:03:51.964Z,10.20
2019-04-06T05:07:57.088Z,10.30
2019-04-06T05:12:02.322Z,10.40
2019-04-06T05:16:11.660Z,10.50
2019-04-06T05:20:16.852Z,10.40
2019-04-06T05:24:21.586Z,10.50
2019-04-06T05:28:26.327Z,10.60
2019-04-06T05:32:31.416Z,10.60
2019-04-06T05:36:36.215Z,10.70
2019-04-06T05:40:41.041Z,10.80
2019-04-06T05:44:46.031Z,10.80
2019-04-06T05:48:50.894Z,10.90
2019-04-06T05:52:56.315Z,10.80
2019-04-06T05:57:01.138Z,10.70
2019-04-06T06:01:06.440Z,10.60
2019-04-06T06:05:11.514Z,10.70
2019-04-06T06:09:16.679Z,10.90
2019-04-06T06:13:21.648Z,10.90
2019-04-06T06:17:26.617Z,10.80
2019-04-06T06:21:32.017Z,10.90
2019-04-06T06:25:37.295Z,11.00
2019-04-06T06:29:42.215Z,11.00
2019-04-06T06:33:47.259Z,11.10
2019-04-06T06:37:52.562Z,11.10
2019-04-06T06:41:57.872Z,11.20
2019-04-06T06:46:03.009Z,11.30
2019-04-06T06:50:08.596Z,11.30
2019-04-06T06:54:13.688Z,11.60
2019-04-06T06:58:25.136Z,11.50
2019-04-06T07:02:25.467Z,11.50
2019-04-06T07:06:30.387Z,11.50
2019-04-06T07:10:35.207Z,11.60
2019-04-06T07:14:40.297Z,11.70
2019-04-06T07:18:45.288Z,11.60
2019-04-06T07:22:50.227Z,11.50
2019-04-06T07:26:55.504Z,11.50
2019-04-06T07:31:02.984Z,11.70
2019-04-06T07:35:08.360Z,11.80
2019-04-06T07:39:14.778Z,11.80
2019-04-06T07:43:19.957Z,11.70
2019-04-06T07:47:25.024Z,11.70
2019-04-06T07:51:30.337Z,11.80
2019-04-06T07:55:36.928Z,12.10
2019-04-06T07:59:43.142Z,12.00
2019-04-06T08:03:48.202Z,12.20
2019-04-06T08:07:53.108Z,12.50
2019-04-06T08:11:58.154Z,12.60
2019-04-06T08:16:03.401Z,12.70
2019-04-06T08:20:08.892Z,12.90
2019-04-06T08:24:13.978Z,13.00
2019-04-06T08:28:19.129Z,13.30
2019-04-06T08:32:24.180Z,13.40
2019-04-06T08:36:30.210Z,13.40
2019-04-06T08:40:35.265Z,13.50
2019-04-06T08:44:40.553Z,13.80
2019-04-06T08:48:45.466Z,13.70
2019-04-06T08:52:51.117Z,14.00
2019-04-06T08:56:56.391Z,14.10
2019-04-06T09:01:04.628Z,14.10
2019-04-06T09:05:09.672Z,14.00
2019-04-06T09:09:14.507Z,14.00
2019-04-06T09:13:19.651Z,13.90
2019-04-06T09:17:24.648Z,13.80
2019-04-06T09:21:29.589Z,13.70
2019-04-06T09:25:34.575Z,13.70
2019-04-06T09:29:39.514Z,13.80
2019-04-06T09:33:44.741Z,13.90
2019-04-06T09:37:49.871Z,14.00
2019-04-06T09:41:55.426Z,14.00
2019-04-06T09:46:13.786Z,14.10
2019-04-06T09:50:34.436Z,14.10
2019-04-06T09:54:51.459Z,14.30
2019-04-06T09:59:07.641Z,14.40
2019-04-06T10:03:38.818Z,14.60
2019-04-06T10:07:49.588Z,14.80
2019-04-06T10:12:19.905Z,14.80
2019-04-06T10:16:59.747Z,14.90
2019-04-06T10:21:24.040Z,15.00
2019-04-06T10:26:03.300Z,15.00
2019-04-06T10:30:26.857Z,15.20
2019-04-06T10:34:49.548Z,15.20
2019-04-06T10:39:16.280Z,15.30
2019-04-06T10:43:38.503Z,15.40
2019-04-06T10:47:54.205Z,15.50
2019-04-06T10:52:17.803Z,15.80
2019-04-06T10:56:34.016Z,16.10
2019-04-06T11:00:51.169Z,16.40
2019-04-06T11:05:06.622Z,16.60
2019-04-06T11:09:29.302Z,16.80
2019-04-06T11:14:08.693Z,16.70
2019-04-06T11:18:29.145Z,16.60
2019-04-06T11:23:05.671Z,16.20
2019-04-06T11:27:27.762Z,16.30
2019-04-06T11:31:42.692Z,16.50
2019-04-06T11:36:18.714Z,16.40
2019-04-06T11:40:41.295Z,16.70
2019-04-06T11:45:11.494Z,16.80
2019-04-06T11:49:22.642Z,16.60
2019-04-06T11:53:45.005Z,16.70
2019-04-06T11:58:07.891Z,17.10
2019-04-06T12:02:32.294Z,17.50
2019-04-06T12:06:56.760Z,17.80
2019-04-06T12:11:25.877Z,17.90
2019-04-06T12:15:46.092Z,18.20
2019-04-06T12:20:16.070Z,18.30
2019-04-06T12:24:42.908Z,18.60
2019-04-06T12:29:05.479Z,18.90
2019-04-06T12:33:25.504Z,19.00
2019-04-06T12:37:49.436Z,18.90
2019-04-06T12:42:25.560Z,19.50
2019-04-06T12:46:50.788Z,19.90
2019-04-06T12:51:33.222Z,20.10
2019-04-06T12:55:48.877Z,20.40
2019-04-06T13:00:15.946Z,20.60
2019-04-06T13:04:58.352Z,20.80
2019-04-06T13:09:28.463Z,21.20
2019-04-06T13:13:45.548Z,21.60
2019-04-06T13:18:08.500Z,22.30
2019-04-06T13:22:31.520Z,22.80
2019-04-06T13:26:54.347Z,23.10
2019-04-06T13:31:12.868Z,23.60
2019-04-06T13:35:35.612Z,23.90
2019-04-06T13:39:58.268Z,24.10
2019-04-06T13:44:28.482Z,24.00
2019-04-06T13:48:55.559Z,23.90
2019-04-06T13:53:07.892Z,24.10
2019-04-06T13:57:24.788Z,24.20
2019-04-06T14:01:39.430Z,24.60
2019-04-06T14:06:12.718Z,24.50
2019-04-06T14:10:33.571Z,25.20
2019-04-06T14:14:45.716Z,25.50
2019-04-06T14:19:19.456Z,25.60
2019-04-06T14:23:31.200Z,26.10
2019-04-06T14:27:52.452Z,25.90
2019-04-06T14:32:16.556Z,25.80
2019-04-06T14:36:34.349Z,25.80
2019-04-06T14:40:52.685Z,25.80
2019-04-06T14:45:17.869Z,25.80
2019-04-06T14:49:33.087Z,26.00
2019-04-06T14:53:43.431Z,26.00
2019-04-06T14:57:56.790Z,26.10
2019-04-06T15:02:11.287Z,26.50
2019-04-06T15:06:35.132Z,26.70
2019-04-06T15:10:53.952Z,26.90
2019-04-06T15:15:16.862Z,26.90
2019-04-06T15:19:35.835Z,27.00
2019-04-06T15:23:51.567Z,27.20
2019-04-06T15:28:11.140Z,28.00
2019-04-06T15:32:38.295Z,28.60
2019-04-06T15:37:02.668Z,29.10
2019-04-06T15:41:30.046Z,29.90
2019-04-06T15:46:04.289Z,30.10
2019-04-06T15:50:31.365Z,29.90
2019-04-06T15:54:58.328Z,29.20
2019-04-06T15:59:09.599Z,28.90
2019-04-06T16:03:32.685Z,28.10
2019-04-06T16:08:18.445Z,27.00
2019-04-06T16:12:32.620Z,25.90
2019-04-06T16:16:56.619Z,25.10
2019-04-06T16:21:20.930Z,24.60
2019-04-06T16:25:32.013Z,24.20
2019-04-06T16:29:46.278Z,23.80
2019-04-06T16:34:11.805Z,23.50
2019-04-06T16:38:45.058Z,23.00
2019-04-06T16:42:56.852Z,22.70
2019-04-06T16:47:11.423Z,22.40
2019-04-06T16:51:29.828Z,22.00
2019-04-06T16:55:44.629Z,21.90
2019-04-06T17:00:17.020Z,21.70
2019-04-06T17:04:29.734Z,21.60
2019-04-06T17:08:43.643Z,21.60
2019-04-06T17:12:56.935Z,21.60
2019-04-06T17:17:17.565Z,21.40
2019-04-06T17:21:31.563Z,21.10
2019-04-06T17:25:46.367Z,20.90
2019-04-06T17:30:06.740Z,20.50
2019-04-06T17:34:19.947Z,20.20
2019-04-06T17:38:42.074Z,19.90
2019-04-06T17:43:04.879Z,19.80
2019-04-06T17:47:34.875Z,19.60
2019-04-06T17:52:05.623Z,19.40
2019-04-06T17:56:38.815Z,19.00
2019-04-06T18:00:59.927Z,18.90
2019-04-06T18:05:30.552Z,18.70
2019-04-06T18:09:40.076Z,18.60
2019-04-06T18:13:50.026Z,18.20
2019-04-06T18:17:55.000Z,18.20
2019-04-06T18:22:00.635Z,18.10
2019-04-06T18:26:06.022Z,18.00
2019-04-06T18:30:11.437Z,17.90
2019-04-06T18:34:17.580Z,17.90
2019-04-06T18:38:27.436Z,17.90
2019-04-06T18:42:33.174Z,17.90
2019-04-06T18:46:40.551Z,18.00
2019-04-06T18:50:46.296Z,18.00
2019-04-06T18:54:52.111Z,18.00
2019-04-06T18:58:59.772Z,18.00
2019-04-06T19:03:17.407Z,18.00
2019-04-06T19:07:12.091Z,17.80
2019-04-06T19:11:17.382Z,17.80
2019-04-06T19:15:24.374Z,17.60
2019-04-06T19:19:31.279Z,17.50
2019-04-06T19:23:37.926Z,17.40
2019-04-06T19:27:43.264Z,17.30
2019-04-06T19:31:48.388Z,17.20
2019-04-06T19:35:53.404Z,17.10
2019-04-06T19:39:58.508Z,17.00
2019-04-06T19:44:03.963Z,17.00
2019-04-06T19:48:09.598Z,16.80
2019-04-06T19:52:34.746Z,16.70
2019-04-06T19:56:40.012Z,16.50
2019-04-06T20:00:46.886Z,16.40
2019-04-06T20:04:58.169Z,16.40
2019-04-06T20:09:06.186Z,16.30
2019-04-06T20:13:12.950Z,16.20
2019-04-06T20:17:18.608Z,15.90
2019-04-06T20:21:24.302Z,15.90
2019-04-06T20:25:29.594Z,15.80
2019-04-06T20:29:34.666Z,15.80
2019-04-06T20:33:48.254Z,15.70
2019-04-06T20:37:46.824Z,15.80
2019-04-06T20:41:52.952Z,15.80
2019-04-06T20:46:00.940Z,15.80
2019-04-06T20:50:09.253Z,15.80
2019-04-06T20:54:14.253Z,15.80
2019-04-06T20:58:19.428Z,15.80
2019-04-06T21:02:24.708Z,15.80
2019-04-06T21:06:29.772Z,15.80
2019-04-06T21:10:35.167Z,15.70
2019-04-06T21:14:40.530Z,15.60
2019-04-06T21:18:45.472Z,15.40
2019-04-06T21:22:50.761Z,15.20
2019-04-06T21:26:56.560Z,15.20
2019-04-06T21:31:02.339Z,15.10
2019-04-06T21:35:07.320Z,15.20
2019-04-06T21:39:12.449Z,15.10
2019-04-06T21:43:17.862Z,15.00
2019-04-06T21:47:24.074Z,14.90
2019-04-06T21:51:30.943Z,14.90
2019-04-06T21:55:37.919Z,14.80
2019-04-06T21:59:43.949Z,14.80
2019-04-06T22:03:50.670Z,14.70
2019-04-06T22:07:56.370Z,14.70
2019-04-06T22:12:02.226Z,14.60
2019-04-06T22:16:09.607Z,14.40
2019-04-06T22:20:15.339Z,14.20
2019-04-06T22:24:21.298Z,14.20
2019-04-06T22:28:26.897Z,14.10
2019-04-06T22:32:32.313Z,14.00
2019-04-06T22:36:37.491Z,13.80
2019-04-06T22:40:42.856Z,13.70
2019-04-06T22:44:48.892Z,13.70
2019-04-06T22:48:53.885Z,13.50
2019-04-06T22:53:01.642Z,13.60
2019-04-06T22:57:09.067Z,13.60
2019-04-06T23:01:16.331Z,13.50
2019-04-06T23:05:29.542Z,13.40
2019-04-06T23:09:34.580Z,13.40
2019-04-06T23:13:39.756Z,13.40
2019-04-06T23:17:44.752Z,13.30
2019-04-06T23:22:09.068Z,13.30
2019-04-06T23:26:14.593Z,13.20
2019-04-06T23:30:19.609Z,13.10
2019-04-06T23:34:24.870Z,13.10
2019-04-06T23:38:29.941Z,13.10
2019-04-06T23:42:35.389Z,13.00
2019-04-06T23:46:40.692Z,13.10
2019-04-06T23:50:45.713Z,13.00
2019-04-06T23:54:50.888Z,12.90
2019-04-06T23:58:55.809Z,12.80
